Time;durP1;ratioP1;P1;durP2;ratioP2;P2;SDS_P1;SDS_P2;PMS_P1;PMS_P2;Temp;Humidity;BMP_temperature;BMP_pressure;BME280_temperature;BME280_humidity;BME280_pressure;Samples;Min_cycle;Max_cycle;Signal;HPM_P1;HPM_P2
2022/06/24 00:01:27;;;;;;;2.60;2.22;;;23.30;59.30;;;;;;5009393;28;20544;-43
2022/06/24 00:03:54;;;;;;;4.85;2.55;;;23.30;59.40;;;;;;4995269;28;20054;-43
2022/06/24 00:06:21;;;;;;;4.30;2.03;;;23.20;59.70;;;;;;5009926;28;20441;-44
2022/06/24 00:08:52;;;;;;;6.60;2.38;;;23.10;59.60;;;;;;4998502;28;20046;-43
2022/06/24 00:11:23;;;;;;;5.72;2.50;;;23.10;59.80;;;;;;5007217;28;20042;-44
2022/06/24 00:13:51;;;;;;;2.88;2.30;;;23.00;59.80;;;;;;5013417;28;20057;-44
2022/06/24 00:16:18;;;;;;;5.60;2.38;;;23.00;59.70;;;;;;4989410;28;20120;-43
2022/06/24 00:18:46;;;;;;;5.28;2.58;;;22.90;60.40;;;;;;4996732;28;20134;-43
2022/06/24 00:21:13;;;;;;;5.05;2.45;;;22.80;60.80;;;;;;4997584;28;20052;-44
2022/06/24 00:23:40;;;;;;;3.85;2.53;;;22.80;60.90;;;;;;5003756;28;20105;-44
2022/06/24 00:26:07;;;;;;;4.72;2.65;;;22.70;60.90;;;;;;5006304;28;20045;-43
2022/06/24 00:28:34;;;;;;;5.35;2.53;;;22.60;60.80;;;;;;5012424;28;20046;-44
2022/06/24 00:31:03;;;;;;;6.97;2.80;;;22.60;60.90;;;;;;4998452;28;20085;-44
2022/06/24 00:33:33;;;;;;;4.10;2.20;;;22.60;61.10;;;;;;5001996;28;20195;-43
2022/06/24 00:36:00;;;;;;;3.78;2.40;;;22.50;61.30;;;;;;5009873;28;20058;-43
2022/06/24 00:38:28;;;;;;;3.20;2.50;;;22.40;61.10;;;;;;4990792;28;20104;-43
2022/06/24 00:40:56;;;;;;;5.65;2.50;;;22.40;61.10;;;;;;5009882;28;20041;-43
2022/06/24 00:43:26;;;;;;;4.53;2.20;;;22.30;61.00;;;;;;5007107;28;20069;-43
2022/06/24 00:45:55;;;;;;;5.15;2.65;;;22.30;61.50;;;;;;4991360;28;20046;-43
2022/06/24 00:48:23;;;;;;;3.80;2.28;;;22.30;61.90;;;;;;4983205;28;20050;-43
2022/06/24 00:50:50;;;;;;;5.57;2.75;;;22.20;61.80;;;;;;4983675;28;20129;-42
2022/06/24 00:53:16;;;;;;;4.70;2.40;;;22.20;62.30;;;;;;5012343;28;20080;-43
2022/06/24 00:55:43;;;;;;;6.22;2.60;;;22.10;62.30;;;;;;5003930;28;20077;-43
2022/06/24 00:58:13;;;;;;;3.13;2.15;;;22.10;62.40;;;;;;4996327;28;20088;-43
2022/06/24 01:00:41;;;;;;;4.00;2.58;;;22.00;63.10;;;;;;4987025;28;20100;-43
2022/06/24 01:03:08;;;;;;;3.58;2.45;;;22.00;62.90;;;;;;5013497;28;20584;-43
2022/06/24 01:05:36;;;;;;;5.13;3.30;;;21.90;63.40;;;;;;5010479;28;20042;-43
2022/06/24 01:08:07;;;;;;;4.47;2.75;;;21.90;63.10;;;;;;5012203;28;20477;-43
2022/06/24 01:10:34;;;;;;;5.03;2.83;;;21.80;63.30;;;;;;5002618;28;20124;-42
2022/06/24 01:13:01;;;;;;;3.58;2.42;;;21.80;64.20;;;;;;5007481;28;20097;-43
2022/06/24 01:15:28;;;;;;;4.85;2.83;;;21.80;63.30;;;;;;4999526;28;20078;-42
2022/06/24 01:17:54;;;;;;;5.07;2.60;;;21.70;63.20;;;;;;4983817;28;20551;-43
2022/06/24 01:20:22;;;;;;;3.53;2.20;;;21.60;63.40;;;;;;4992928;28;20042;-43
2022/06/24 01:22:50;;;;;;;3.95;2.35;;;21.60;63.40;;;;;;4991325;28;20042;-43
2022/06/24 01:25:17;;;;;;;2.95;2.50;;;21.60;63.80;;;;;;5013217;28;20508;-43
2022/06/24 01:27:44;;;;;;;6.13;2.60;;;21.50;63.70;;;;;;5009236;28;20045;-43
2022/06/24 01:30:12;;;;;;;3.25;2.13;;;21.50;63.70;;;;;;5013216;28;20084;-43
2022/06/24 01:32:38;;;;;;;3.72;2.40;;;21.50;63.70;;;;;;4993820;28;20433;-43
2022/06/24 01:35:06;;;;;;;6.05;2.72;;;21.50;63.50;;;;;;5010489;28;20124;-43
2022/06/24 01:37:33;;;;;;;7.03;2.90;;;21.40;63.70;;;;;;5010223;28;20544;-44
2022/06/24 01:40:01;;;;;;;3.80;2.78;;;21.40;64.00;;;;;;4992062;28;20049;-43
2022/06/24 01:42:28;;;;;;;3.95;2.45;;;21.30;64.10;;;;;;5011989;28;20088;-43
2022/06/24 01:44:55;;;;;;;4.72;2.75;;;21.30;64.20;;;;;;5013456;28;20128;-43
2022/06/24 01:47:22;;;;;;;7.00;2.60;;;21.20;64.80;;;;;;5012386;28;20049;-43
2022/06/24 01:49:48;;;;;;;5.43;2.65;;;21.20;64.60;;;;;;4994882;28;20082;-43
2022/06/24 01:52:15;;;;;;;4.50;2.30;;;21.20;64.60;;;;;;4993127;28;20038;-44
2022/06/24 01:54:42;;;;;;;3.50;2.45;;;21.10;64.50;;;;;;5011469;28;20495;-43
2022/06/24 01:57:10;;;;;;;3.15;2.25;;;21.10;64.40;;;;;;5011788;28;20046;-43
2022/06/24 01:59:37;;;;;;;5.45;2.38;;;21.10;64.40;;;;;;5013535;28;20050;-43
2022/06/24 02:02:04;;;;;;;6.43;2.53;;;21.10;64.80;;;;;;5005932;28;20076;-43
2022/06/24 02:04:31;;;;;;;4.93;2.70;;;21.00;65.40;;;;;;5005871;28;20085;-43
2022/06/24 02:06:58;;;;;;;4.13;2.38;;;21.00;65.80;;;;;;5011753;28;20054;-43
2022/06/24 02:09:25;;;;;;;5.95;2.70;;;21.00;65.30;;;;;;4999950;28;20085;-43
2022/06/24 02:14:37;;;;;;;4.05;2.45;;;20.90;65.90;;;;;;5005386;28;20045;-42
2022/06/24 02:17:05;;;;;;;6.20;2.78;;;20.90;65.90;;;;;;4994267;28;20462;-43
2022/06/24 02:19:32;;;;;;;3.65;2.53;;;20.90;65.50;;;;;;4987805;28;20073;-43
2022/06/24 02:21:59;;;;;;;4.55;2.50;;;20.90;65.50;;;;;;5012380;28;20050;-43
2022/06/24 02:24:26;;;;;;;5.88;2.60;;;20.80;65.80;;;;;;4991472;28;20130;-43
2022/06/24 02:26:53;;;;;;;4.25;3.10;;;20.80;65.80;;;;;;4992004;28;20046;-43
2022/06/24 02:29:20;;;;;;;5.57;2.80;;;20.80;67.00;;;;;;5005749;28;20135;-43
2022/06/24 02:31:48;;;;;;;2.88;2.55;;;20.80;66.80;;;;;;5004325;28;20045;-43
2022/06/24 02:34:15;;;;;;;4.53;2.97;;;20.80;66.40;;;;;;5011805;28;20065;-43
2022/06/24 02:36:42;;;;;;;8.25;2.58;;;20.80;66.70;;;;;;5011790;28;20046;-44
2022/06/24 02:39:08;;;;;;;2.33;2.13;;;20.80;66.60;;;;;;4993298;28;20046;-43
2022/06/24 02:41:35;;;;;;;3.80;2.33;;;20.80;66.10;;;;;;5011954;28;20045;-42
2022/06/24 02:44:02;;;;;;;2.25;2.05;;;20.80;66.00;;;;;;5012378;28;20034;-43
2022/06/24 02:46:29;;;;;;;3.08;2.58;;;20.80;65.60;;;;;;5012321;28;20053;-42
2022/06/24 02:48:57;;;;;;;4.70;2.60;;;20.80;65.90;;;;;;4993566;28;20121;-43
2022/06/24 02:51:24;;;;;;;5.45;2.58;;;20.80;66.20;;;;;;5010324;28;20418;-43
2022/06/24 02:53:51;;;;;;;5.50;2.70;;;20.80;66.40;;;;;;5012659;28;20092;-43
2022/06/24 02:56:18;;;;;;;4.03;2.45;;;20.80;66.20;;;;;;5011780;28;20052;-42
2022/06/24 02:58:44;;;;;;;4.55;2.65;;;20.80;66.50;;;;;;5011192;28;20073;-43
2022/06/24 03:01:11;;;;;;;5.32;2.60;;;20.80;66.50;;;;;;5012313;28;20100;-43
2022/06/24 03:03:38;;;;;;;3.22;2.33;;;20.90;66.80;;;;;;4993736;28;20159;-44
2022/06/24 03:06:07;;;;;;;6.22;2.67;;;20.80;66.40;;;;;;5010349;28;20099;-44
2022/06/24 03:08:33;;;;;;;3.55;2.20;;;20.90;66.60;;;;;;5010358;28;20108;-43
2022/06/24 03:11:00;;;;;;;3.55;2.63;;;20.90;66.50;;;;;;5011009;28;20427;-43
2022/06/24 03:13:28;;;;;;;5.38;2.28;;;20.90;66.50;;;;;;4994061;28;20208;-43
2022/06/24 03:15:54;;;;;;;2.83;2.42;;;20.90;66.20;;;;;;5011832;28;20044;-43
2022/06/24 03:18:23;;;;;;;2.90;2.20;;;20.90;66.20;;;;;;4994593;28;20054;-43
2022/06/24 03:20:50;;;;;;;7.95;2.72;;;20.90;66.20;;;;;;5011834;28;20068;-42
2022/06/24 03:23:18;;;;;;;3.42;2.47;;;20.90;66.60;;;;;;4994953;28;20062;-43
2022/06/24 03:25:45;;;;;;;4.68;2.58;;;20.90;66.90;;;;;;4994490;28;20046;-43
2022/06/24 03:28:12;;;;;;;2.90;2.60;;;20.90;66.60;;;;;;5012811;28;20088;-44
2022/06/24 03:30:39;;;;;;;3.90;2.40;;;20.90;66.40;;;;;;4994407;28;20049;-43
2022/06/24 03:33:06;;;;;;;4.32;2.47;;;20.80;66.30;;;;;;5009103;28;20061;-42
2022/06/24 03:35:32;;;;;;;8.90;2.40;;;20.90;66.70;;;;;;4992254;28;20144;-44
2022/06/24 03:38:00;;;;;;;7.35;3.03;;;20.90;67.80;;;;;;5008754;28;20478;-43
2022/06/24 03:40:28;;;;;;;5.93;2.67;;;20.90;67.50;;;;;;5003651;28;20441;-43
2022/06/24 03:42:54;;;;;;;5.10;2.83;;;20.90;67.60;;;;;;5005810;28;20038;-43
2022/06/24 03:45:21;;;;;;;5.65;2.67;;;20.90;67.80;;;;;;4979812;28;20089;-42
2022/06/24 03:47:48;;;;;;;5.53;3.42;;;20.80;68.30;;;;;;5002337;28;20054;-43
2022/06/24 03:50:15;;;;;;;4.55;2.53;;;20.80;67.90;;;;;;5012304;28;20050;-43
2022/06/24 03:52:42;;;;;;;8.30;3.13;;;20.80;67.50;;;;;;4997726;28;20433;-43
2022/06/24 03:55:09;;;;;;;3.85;2.90;;;20.80;68.70;;;;;;5015155;28;20104;-43
2022/06/24 03:57:38;;;;;;;6.88;2.97;;;20.80;68.80;;;;;;5014194;28;20050;-43
2022/06/24 04:00:08;;;;;;;5.50;2.65;;;20.80;69.10;;;;;;5008117;28;20120;-43
2022/06/24 04:02:35;;;;;;;3.63;2.70;;;20.80;69.10;;;;;;4971102;28;20046;-43
2022/06/24 04:05:02;;;;;;;5.18;2.70;;;20.80;68.40;;;;;;5010430;28;20136;-44
2022/06/24 04:07:28;;;;;;;3.03;2.30;;;20.80;68.50;;;;;;4999953;28;20112;-43
2022/06/24 04:09:55;;;;;;;5.40;2.55;;;20.80;68.00;;;;;;4992691;28;20100;-43
2022/06/24 04:12:22;;;;;;;6.15;3.35;;;20.80;68.10;;;;;;4991499;28;20169;-43
2022/06/24 04:17:34;;;;;;;4.68;2.75;;;20.80;68.80;;;;;;5001190;28;20041;-43
2022/06/24 04:20:01;;;;;;;3.20;2.50;;;20.80;68.60;;;;;;5003351;28;20132;-43
2022/06/24 04:22:28;;;;;;;7.10;3.30;;;20.80;68.40;;;;;;5012462;28;20482;-42
2022/06/24 04:24:55;;;;;;;6.05;3.58;;;20.90;69.30;;;;;;5014103;28;20438;-42
2022/06/24 04:27:22;;;;;;;4.40;3.72;;;20.90;69.40;;;;;;5008605;28;20120;-43
2022/06/24 04:29:50;;;;;;;7.70;4.30;;;20.90;69.90;;;;;;4991016;28;20070;-43
2022/06/24 04:32:16;;;;;;;7.95;5.55;;;21.00;70.10;;;;;;5012899;28;20041;-43
2022/06/24 04:34:43;;;;;;;10.40;7.03;;;21.00;72.20;;;;;;4996928;28;20046;-43
2022/06/24 04:37:10;;;;;;;11.18;8.13;;;21.10;73.10;;;;;;4989767;28;20084;-43
2022/06/24 04:39:37;;;;;;;17.08;9.23;;;21.20;75.70;;;;;;5010057;28;20054;-43
2022/06/24 04:42:04;;;;;;;12.95;9.75;;;21.20;78.50;;;;;;4991600;28;20886;-43
2022/06/24 04:44:31;;;;;;;13.98;10.68;;;21.20;81.90;;;;;;4985092;28;20125;-43
2022/06/24 04:47:00;;;;;;;15.77;10.60;;;21.20;86.90;;;;;;4993661;28;20046;-43
2022/06/24 04:49:27;;;;;;;17.48;11.38;;;21.30;90.40;;;;;;4995766;28;20060;-42
2022/06/24 04:51:54;;;;;;;15.63;9.55;;;21.30;92.50;;;;;;4993487;28;20438;-43
2022/06/24 04:54:21;;;;;;;13.70;9.20;;;21.30;94.00;;;;;;5000789;28;20042;-42
2022/06/24 04:56:48;;;;;;;12.48;6.43;;;21.40;95.00;;;;;;5010212;28;20426;-43
2022/06/24 04:59:14;;;;;;;8.82;5.65;;;21.50;95.70;;;;;;4997262;28;20073;-43
2022/06/24 05:01:41;;;;;;;7.85;4.95;;;21.50;96.20;;;;;;4995206;28;20474;-43
2022/06/24 05:04:09;;;;;;;8.75;4.45;;;21.60;96.70;;;;;;4992376;28;20069;-43
2022/06/24 05:06:36;;;;;;;7.88;4.10;;;21.70;96.90;;;;;;5004593;28;20097;-43
2022/06/24 05:09:03;;;;;;;9.48;4.10;;;21.70;97.10;;;;;;5012334;28;20050;-42
2022/06/24 05:11:30;;;;;;;7.22;4.22;;;21.80;97.50;;;;;;4996981;28;20133;-42
2022/06/24 05:13:57;;;;;;;8.88;3.80;;;21.80;97.60;;;;;;4984240;28;20386;-43
2022/06/24 05:16:23;;;;;;;10.90;4.40;;;21.80;97.70;;;;;;4980367;28;20058;-43
2022/06/24 05:18:50;;;;;;;7.55;3.72;;;21.80;97.90;;;;;;5013445;28;20477;-44
2022/06/24 05:21:18;;;;;;;7.90;3.83;;;21.80;97.90;;;;;;5012221;28;20100;-43
2022/06/24 05:23:45;;;;;;;7.47;3.92;;;21.80;97.90;;;;;;4982680;28;20050;-42
2022/06/24 05:26:12;;;;;;;7.40;4.10;;;21.80;98.20;;;;;;5014372;28;20049;-43
2022/06/24 05:28:39;;;;;;;7.68;4.03;;;21.80;98.30;;;;;;5013586;28;20061;-43
2022/06/24 05:31:06;;;;;;;7.18;4.32;;;21.80;98.20;;;;;;5011882;28;20136;-43
2022/06/24 05:33:33;;;;;;;6.60;4.10;;;21.80;98.60;;;;;;4980587;28;20086;-42
2022/06/24 05:36:00;;;;;;;6.55;3.97;;;21.70;98.70;;;;;;4999016;28;20124;-43
2022/06/24 05:38:28;;;;;;;6.32;4.10;;;21.80;98.70;;;;;;5006094;28;20490;-43
2022/06/24 05:40:55;;;;;;;9.13;4.20;;;21.70;98.70;;;;;;5008086;28;20124;-43
2022/06/24 05:43:22;;;;;;;8.70;4.00;;;21.80;98.50;;;;;;5002847;28;20050;-43
2022/06/24 05:45:49;;;;;;;8.75;4.20;;;21.80;98.60;;;;;;4993865;28;20070;-42
2022/06/24 05:48:16;;;;;;;7.18;4.10;;;21.80;98.80;;;;;;5005227;28;20096;-42
2022/06/24 05:50:42;;;;;;;7.10;3.72;;;21.80;98.60;;;;;;4991928;28;20061;-43
2022/06/24 05:55:58;;;;;;;7.00;3.80;;;21.80;98.10;;;;;;5007675;28;20477;-43
2022/06/24 05:58:25;;;;;;;7.03;3.90;;;21.80;98.60;;;;;;4999697;28;20119;-43
2022/06/24 06:00:53;;;;;;;5.25;3.35;;;21.80;98.70;;;;;;4977975;28;20046;-43
2022/06/24 06:03:20;;;;;;;6.30;3.47;;;21.80;98.10;;;;;;4964366;23;20100;-43
2022/06/24 06:05:46;;;;;;;5.00;3.70;;;21.80;97.90;;;;;;4980815;28;20097;-42
2022/06/24 06:08:13;;;;;;;4.25;3.13;;;21.90;98.00;;;;;;4993255;28;20117;-43
2022/06/24 06:10:40;;;;;;;8.20;3.40;;;22.00;98.00;;;;;;4974521;28;20096;-43
2022/06/24 06:13:08;;;;;;;6.25;3.03;;;22.00;98.10;;;;;;4990806;28;20100;-43
2022/06/24 06:15:35;;;;;;;8.70;3.60;;;22.10;98.30;;;;;;4991665;28;20478;-44
2022/06/24 06:18:02;;;;;;;4.07;2.90;;;22.10;98.40;;;;;;4970202;28;20132;-43
2022/06/24 06:20:29;;;;;;;7.22;3.35;;;22.10;98.30;;;;;;5002975;28;20077;-43
2022/06/24 06:22:56;;;;;;;6.90;3.42;;;22.20;98.40;;;;;;4974536;28;20478;-43
2022/06/24 06:25:23;;;;;;;4.47;2.88;;;22.10;98.80;;;;;;4999929;28;20034;-43
2022/06/24 06:27:50;;;;;;;6.38;3.25;;;22.20;98.30;;;;;;4977795;28;20122;-43
2022/06/24 06:30:18;;;;;;;5.43;2.85;;;22.20;98.60;;;;;;4986176;28;20050;-42
2022/06/24 06:32:45;;;;;;;6.47;3.40;;;22.20;98.20;;;;;;4992228;28;20065;-43
2022/06/24 06:35:11;;;;;;;6.10;3.30;;;22.20;98.40;;;;;;4994122;28;20411;-43
2022/06/24 06:37:38;;;;;;;5.70;3.10;;;22.30;98.30;;;;;;4994207;28;20081;-43
2022/06/24 06:40:06;;;;;;;6.97;3.13;;;22.30;97.70;;;;;;4990457;28;20128;-43
2022/06/24 06:42:33;;;;;;;7.82;3.03;;;22.30;97.80;;;;;;4995182;28;20077;-43
2022/06/24 06:45:00;;;;;;;5.43;3.13;;;22.30;97.90;;;;;;4991993;28;20078;-43
2022/06/24 06:47:29;;;;;;;6.93;2.90;;;22.30;98.10;;;;;;4986842;28;20043;-43
2022/06/24 06:49:55;;;;;;;3.92;2.92;;;22.20;97.60;;;;;;4974456;28;20360;-43
2022/06/24 06:52:22;;;;;;;4.93;3.40;;;22.20;97.70;;;;;;4992044;28;20096;-43
2022/06/24 06:54:49;;;;;;;5.78;3.60;;;22.20;98.20;;;;;;4974856;28;20082;-43
2022/06/24 06:57:16;;;;;;;9.43;3.53;;;22.20;98.80;;;;;;4992007;28;20125;-43
2022/06/24 06:59:42;;;;;;;5.88;3.55;;;22.10;98.70;;;;;;4991941;28;20050;-43
2022/06/24 07:02:09;;;;;;;6.03;2.90;;;22.10;99.20;;;;;;4991502;28;20082;-43
2022/06/24 07:04:37;;;;;;;6.97;3.75;;;22.10;99.00;;;;;;4973987;28;20116;-42
2022/06/24 07:07:05;;;;;;;5.80;3.67;;;22.10;99.30;;;;;;4973374;28;20058;-43
2022/06/24 07:09:31;;;;;;;5.60;3.20;;;22.00;99.30;;;;;;4988401;28;20054;-43
2022/06/24 07:11:58;;;;;;;7.00;3.25;;;22.10;99.60;;;;;;4991666;28;20097;-42
2022/06/24 07:14:25;;;;;;;5.63;3.50;;;22.00;99.10;;;;;;5010806;28;20100;-43
2022/06/24 07:16:52;;;;;;;7.10;3.80;;;22.00;99.00;;;;;;4987635;28;20526;-43
2022/06/24 07:19:18;;;;;;;5.80;4.00;;;22.10;99.00;;;;;;4995542;28;20077;-43
2022/06/24 07:21:47;;;;;;;6.00;3.67;;;22.10;99.20;;;;;;4972382;28;20097;-43
2022/06/24 07:24:13;;;;;;;6.88;3.55;;;22.10;99.20;;;;;;4976258;28;20426;-44
2022/06/24 07:26:40;;;;;;;8.07;4.43;;;22.10;99.40;;;;;;5004829;28;20042;-43
2022/06/24 07:29:07;;;;;;;7.65;3.85;;;22.10;99.50;;;;;;5005638;28;20434;-43
2022/06/24 07:31:35;;;;;;;5.65;3.97;;;22.10;99.70;;;;;;4995562;28;20046;-43
2022/06/24 07:34:03;;;;;;;7.50;4.60;;;22.10;99.90;;;;;;4978407;28;20129;-43
2022/06/24 07:36:29;;;;;;;4.90;3.40;;;22.00;99.90;;;;;;4975663;28;20054;-44
2022/06/24 07:38:58;;;;;;;8.45;3.78;;;22.00;99.80;;;;;;4977923;28;20073;-44
2022/06/24 07:41:24;;;;;;;7.30;4.15;;;21.90;99.80;;;;;;4997186;28;20085;-44
2022/06/24 07:43:51;;;;;;;5.57;3.88;;;21.90;99.90;;;;;;4998509;28;20113;-43
2022/06/24 07:46:18;;;;;;;5.97;3.60;;;22.00;99.90;;;;;;4980773;28;20375;-43
2022/06/24 07:48:45;;;;;;;7.07;4.18;;;21.90;99.90;;;;;;4974514;28;20077;-44
2022/06/24 07:51:13;;;;;;;7.55;5.25;;;22.00;99.90;;;;;;4985485;28;20066;-44
2022/06/24 07:53:40;;;;;;;7.57;4.07;;;21.90;99.90;;;;;;4974422;28;20046;-44
2022/06/24 07:58:52;;;;;;;6.72;3.95;;;21.80;99.90;;;;;;4994345;28;20471;-43
2022/06/24 08:01:19;;;;;;;7.85;4.65;;;21.80;99.90;;;;;;4976087;28;20119;-42
2022/06/24 08:03:46;;;;;;;7.57;5.18;;;21.90;99.90;;;;;;4994004;28;20058;-42
2022/06/24 08:06:13;;;;;;;7.97;4.53;;;21.90;99.90;;;;;;4976465;28;20383;-43
2022/06/24 08:08:39;;;;;;;5.57;4.55;;;21.90;99.90;;;;;;4996809;28;20081;-43
2022/06/24 08:11:08;;;;;;;9.02;5.18;;;21.90;99.90;;;;;;5012645;28;20041;-43
2022/06/24 08:13:34;;;;;;;7.60;4.47;;;21.80;99.90;;;;;;4997985;28;20081;-42
2022/06/24 08:16:01;;;;;;;7.35;4.40;;;21.80;99.90;;;;;;5010210;28;20078;-42
2022/06/24 08:18:28;;;;;;;6.63;4.75;;;21.80;99.90;;;;;;4993945;28;20130;-43
2022/06/24 08:20:55;;;;;;;9.50;4.45;;;21.80;99.90;;;;;;4986602;28;20054;-42
2022/06/24 08:23:22;;;;;;;10.93;5.03;;;21.80;99.90;;;;;;4995160;28;20069;-43
2022/06/24 08:25:48;;;;;;;7.20;4.65;;;21.80;99.90;;;;;;4998641;28;20116;-43
2022/06/24 08:28:16;;;;;;;11.77;5.70;;;21.80;99.90;;;;;;4991397;28;20427;-43
2022/06/24 08:30:43;;;;;;;5.40;4.47;;;21.80;99.90;;;;;;4974219;28;20069;-42
2022/06/24 08:33:10;;;;;;;9.25;5.40;;;21.80;99.90;;;;;;4990525;28;20046;-43
2022/06/24 08:35:37;;;;;;;6.05;4.75;;;21.80;99.90;;;;;;4994566;28;20137;-42
2022/06/24 08:38:04;;;;;;;9.88;5.00;;;21.80;99.90;;;;;;4994252;28;20105;-42
2022/06/24 08:40:31;;;;;;;11.18;5.97;;;21.80;99.90;;;;;;4995019;28;20453;-43
2022/06/24 08:42:58;;;;;;;10.10;5.90;;;21.80;99.90;;;;;;5001294;28;20756;-43
2022/06/24 08:45:27;;;;;;;6.95;4.97;;;21.80;99.90;;;;;;4995612;28;20101;-43
2022/06/24 08:47:53;;;;;;;8.32;5.53;;;21.80;99.90;;;;;;4991947;28;20050;-43
2022/06/24 08:50:20;;;;;;;5.78;4.68;;;21.80;99.90;;;;;;4994158;28;20435;-43
2022/06/24 08:52:48;;;;;;;8.63;5.45;;;21.80;99.90;;;;;;4998043;28;20583;-42
2022/06/24 08:55:16;;;;;;;8.07;5.97;;;21.80;99.90;;;;;;4980119;28;20204;-43
2022/06/24 08:57:43;;;;;;;8.13;5.88;;;21.80;99.90;;;;;;4996567;28;20073;-42
2022/06/24 09:00:11;;;;;;;7.88;4.88;;;21.80;99.90;;;;;;4990384;28;20051;-43
2022/06/24 09:02:39;;;;;;;9.88;6.20;;;21.80;99.90;;;;;;4992911;28;20077;-43
2022/06/24 09:05:09;;;;;;;11.25;5.63;;;21.80;99.90;;;;;;4988868;28;20078;-43
2022/06/24 09:07:35;;;;;;;8.80;5.60;;;21.70;99.90;;;;;;5010818;28;20096;-43
2022/06/24 09:10:04;;;;;;;6.55;5.63;;;21.70;99.90;;;;;;4991312;28;20045;-44
2022/06/24 09:12:31;;;;;;;6.63;4.80;;;21.70;99.90;;;;;;4987664;28;20669;-44
2022/06/24 09:15:01;;;;;;;9.20;6.20;;;21.70;99.90;;;;;;4988173;28;20102;-43
2022/06/24 09:17:29;;;;;;;7.68;5.82;;;21.70;99.90;;;;;;4993867;28;20049;-43
2022/06/24 09:20:04;;;;;;;7.85;6.22;;;21.60;99.90;;;;;;4979586;28;20389;-44
2022/06/24 09:22:31;;;;;;;9.70;6.25;;;21.60;99.90;;;;;;4966510;28;20097;-43
2022/06/24 09:24:58;;;;;;;9.77;5.60;;;21.50;99.90;;;;;;4993429;28;20660;-43
2022/06/24 09:27:25;;;;;;;9.20;5.68;;;21.50;99.90;;;;;;4993089;28;20129;-44
2022/06/24 09:29:51;;;;;;;8.50;6.50;;;21.50;99.90;;;;;;4996464;28;20117;-43
2022/06/24 09:32:18;;;;;;;11.00;5.18;;;21.50;99.90;;;;;;4989237;28;20160;-44
2022/06/24 09:35:16;;;;;;;7.65;3.70;;;21.40;99.90;;;;;;4972190;28;20066;-44
2022/06/24 09:37:44;;;;;;;6.70;3.20;;;21.30;99.90;;;;;;4907823;29;20087;-43
2022/06/24 09:40:22;;;;;;;8.88;3.95;;;21.10;99.90;;;;;;4974539;28;20153;-44
2022/06/24 09:42:56;;;;;;;8.30;4.10;;;21.00;99.90;;;;;;4950388;28;20114;-45
2022/06/24 09:45:23;;;;;;;7.63;3.58;;;21.00;99.90;;;;;;4988181;28;20093;-46
2022/06/24 09:47:50;;;;;;;11.60;4.13;;;20.90;99.90;;;;;;4992561;28;20090;-44
2022/06/24 09:50:18;;;;;;;7.97;4.22;;;20.80;99.90;;;;;;4979341;28;20066;-44
2022/06/24 09:52:45;;;;;;;5.38;3.38;;;20.80;99.90;;;;;;4994112;28;20525;-44
2022/06/24 09:55:12;;;;;;;13.48;3.22;;;20.70;99.90;;;;;;4987408;28;20034;-44
2022/06/24 09:57:39;;;;;;;9.00;3.50;;;20.50;99.90;;;;;;4990729;28;20078;-43
2022/06/24 10:02:51;;;;;;;6.40;2.92;;;20.40;99.90;;;;;;4971444;28;20050;-43
2022/06/24 10:05:20;;;;;;;6.57;3.30;;;20.40;99.90;;;;;;4973062;28;20126;-42
2022/06/24 10:07:47;;;;;;;7.18;3.15;;;20.30;99.90;;;;;;4970609;28;20073;-43
2022/06/24 10:10:15;;;;;;;4.55;2.75;;;20.30;99.90;;;;;;4983643;28;20112;-44
2022/06/24 10:12:46;;;;;;;6.03;2.80;;;20.20;99.90;;;;;;4989944;28;20104;-43
2022/06/24 10:15:14;;;;;;;7.13;2.90;;;20.10;99.90;;;;;;4992624;28;20060;-44
2022/06/24 10:17:42;;;;;;;7.65;3.30;;;20.10;99.90;;;;;;4984846;28;20100;-44
2022/06/24 10:20:09;;;;;;;8.75;3.90;;;20.10;99.90;;;;;;4977857;28;20482;-44
2022/06/24 10:22:38;;;;;;;7.70;4.18;;;20.10;99.90;;;;;;4993719;28;20482;-45
2022/06/24 10:25:06;;;;;;;6.95;3.33;;;20.10;99.90;;;;;;4993554;28;20086;-44
2022/06/24 10:28:09;;;;;;;6.72;3.28;;;20.10;99.90;;;;;;4992745;28;20092;-43
2022/06/24 10:30:57;;;;;;;6.30;3.78;;;20.00;99.90;;;;;;4992557;28;20089;-43
2022/06/24 10:33:26;;;;;;;4.60;3.28;;;20.00;99.90;;;;;;4971801;28;20042;-44
2022/06/24 10:36:01;;;;;;;8.57;3.92;;;20.00;99.90;;;;;;4991879;28;20515;-43
2022/06/24 10:38:36;;;;;;;6.53;3.50;;;20.00;99.90;;;;;;4995737;28;20112;-43
2022/06/24 10:41:02;;;;;;;8.40;3.75;;;20.10;99.90;;;;;;4967819;28;20039;-43
2022/06/24 10:43:40;;;;;;;7.68;3.22;;;20.00;99.90;;;;;;4973897;28;20064;-44
2022/06/24 10:46:17;;;;;;;10.23;3.55;;;20.10;99.90;;;;;;4992246;28;20046;-44
2022/06/24 10:49:00;;;;;;;4.18;2.70;;;20.10;99.90;;;;;;4995024;28;20068;-45
2022/06/24 10:51:31;;;;;;;4.55;3.05;;;20.10;99.90;;;;;;4995259;28;20092;-45
2022/06/24 10:54:15;;;;;;;6.18;3.70;;;20.20;99.90;;;;;;4991251;28;20049;-45
2022/06/24 10:56:44;;;;;;;6.07;4.05;;;20.20;99.90;;;;;;4989737;28;20050;-45
2022/06/24 10:59:11;;;;;;;4.78;3.60;;;20.30;99.90;;;;;;4993196;28;20121;-45
2022/06/24 11:01:41;;;;;;;4.90;3.65;;;20.30;99.90;;;;;;4990926;28;20412;-45
2022/06/24 11:04:08;;;;;;;5.25;3.38;;;20.40;99.90;;;;;;4975607;28;20092;-44
2022/06/24 11:06:35;;;;;;;4.55;3.03;;;20.50;99.90;;;;;;4993441;28;20045;-43
2022/06/24 11:09:05;;;;;;;6.45;3.50;;;20.50;99.90;;;;;;4992261;28;20050;-44
2022/06/24 11:11:33;;;;;;;7.50;4.60;;;20.60;99.90;;;;;;4986321;28;20126;-44
2022/06/24 11:14:01;;;;;;;6.50;3.90;;;20.60;99.90;;;;;;4956535;28;20109;-44
2022/06/24 11:16:28;;;;;;;5.05;3.08;;;20.60;99.90;;;;;;4956619;28;20069;-44
2022/06/24 11:18:55;;;;;;;5.57;4.32;;;20.70;99.90;;;;;;4956461;28;20191;-44
2022/06/24 11:21:22;;;;;;;4.82;3.97;;;20.70;99.90;;;;;;4973772;28;20085;-44
2022/06/24 11:23:48;;;;;;;5.75;4.18;;;20.70;99.90;;;;;;4969089;28;20475;-43
2022/06/24 11:26:16;;;;;;;8.02;4.28;;;20.80;99.90;;;;;;4975035;28;20097;-43
2022/06/24 11:28:51;;;;;;;5.75;3.60;;;20.80;99.90;;;;;;4975193;28;20058;-43
2022/06/24 11:31:19;;;;;;;6.45;4.88;;;20.90;99.90;;;;;;4993093;28;20056;-43
2022/06/24 11:33:46;;;;;;;7.47;4.57;;;21.00;99.90;;;;;;4992543;28;20042;-43
2022/06/24 11:36:14;;;;;;;10.43;5.82;;;21.10;99.90;;;;;;4993059;28;20089;-42
2022/06/24 11:38:51;;;;;;;9.65;5.82;;;21.20;99.90;;;;;;4992632;28;20118;-42
2022/06/24 11:41:22;;;;;;;9.13;4.55;;;21.40;99.90;;;;;;4993047;28;20092;-43
2022/06/24 11:43:51;;;;;;;7.43;5.07;;;21.50;99.90;;;;;;5005940;28;20050;-43
2022/06/24 11:46:18;;;;;;;7.97;5.07;;;21.60;99.90;;;;;;4974691;28;20074;-42
2022/06/24 11:48:45;;;;;;;7.00;5.30;;;21.70;99.90;;;;;;4992972;28;20050;-43
2022/06/24 11:51:18;;;;;;;8.18;5.82;;;21.70;99.90;;;;;;4992282;28;20042;-43
2022/06/24 11:53:56;;;;;;;8.63;5.85;;;21.90;99.90;;;;;;4975373;28;20062;-42
2022/06/24 11:56:23;;;;;;;7.35;5.65;;;22.00;99.90;;;;;;4992361;28;20042;-43
2022/06/24 11:58:51;;;;;;;9.15;6.82;;;22.10;99.90;;;;;;4993119;28;20038;-43
2022/06/24 12:01:19;;;;;;;7.10;5.53;;;22.20;99.90;;;;;;4975569;28;20055;-43
2022/06/24 12:03:46;;;;;;;10.00;5.80;;;22.20;99.90;;;;;;5006898;28;20057;-43
2022/06/24 12:06:13;;;;;;;6.88;6.05;;;22.30;99.90;;;;;;5006601;28;20043;-43
2022/06/24 12:08:40;;;;;;;8.02;6.20;;;22.40;99.90;;;;;;4976860;28;20061;-43
2022/06/24 12:11:14;;;;;;;10.63;7.43;;;22.60;99.90;;;;;;4959768;28;20089;-43
2022/06/24 12:13:41;;;;;;;9.07;7.32;;;22.80;99.90;;;;;;4976907;28;20394;-43
2022/06/24 12:16:09;;;;;;;9.32;7.28;;;22.90;99.90;;;;;;4979407;28;20050;-43
2022/06/24 12:18:36;;;;;;;9.32;7.75;;;23.00;99.90;;;;;;4996017;28;20077;-42
2022/06/24 12:21:04;;;;;;;9.00;7.20;;;23.10;99.90;;;;;;4978018;28;20167;-42
2022/06/24 12:23:32;;;;;;;13.73;8.73;;;23.20;99.90;;;;;;5007315;28;20042;-43
2022/06/24 12:25:59;;;;;;;8.82;7.65;;;23.30;99.90;;;;;;5013214;28;20078;-42
2022/06/24 12:28:27;;;;;;;10.65;9.43;;;23.40;99.90;;;;;;4996319;28;20077;-42
2022/06/24 12:30:58;;;;;;;13.60;11.13;;;23.50;99.90;;;;;;4995953;28;20181;-43
2022/06/24 12:33:26;;;;;;;11.68;10.25;;;23.50;99.90;;;;;;4998007;28;20054;-43
2022/06/24 12:36:08;;;;;;;13.20;9.57;;;23.60;99.90;;;;;;4996896;28;20500;-43
2022/06/24 12:38:36;;;;;;;11.35;10.23;;;23.70;99.90;;;;;;4995184;28;20049;-42
2022/06/24 12:41:08;;;;;;;11.48;9.15;;;23.70;99.90;;;;;;5015314;28;20050;-43
2022/06/24 12:43:34;;;;;;;11.57;9.95;;;23.80;99.90;;;;;;5008828;28;20049;-42
2022/06/24 12:46:03;;;;;;;14.95;12.27;;;23.90;99.90;;;;;;4993665;28;20046;-43
2022/06/24 12:51:23;;;;;;;13.50;10.85;;;24.10;99.90;;;;;;4995447;28;20094;-43
2022/06/24 12:53:50;;;;;;;14.82;11.85;;;24.20;99.90;;;;;;4995573;28;20085;-43
2022/06/24 12:56:17;;;;;;;12.23;10.93;;;24.20;99.90;;;;;;4977489;28;20062;-43
2022/06/24 12:58:44;;;;;;;15.30;11.52;;;24.20;99.90;;;;;;4994061;28;20042;-43
2022/06/24 13:01:10;;;;;;;12.60;11.20;;;24.30;99.90;;;;;;4990508;28;20078;-43
2022/06/24 13:03:39;;;;;;;12.02;10.25;;;24.40;99.30;;;;;;4996245;28;20081;-43
2022/06/24 13:06:05;;;;;;;11.93;10.38;;;24.50;99.50;;;;;;4991330;28;20065;-43